Time;durP1;ratioP1;P1;durP2;ratioP2;P2;SDS_P1;SDS_P2;PMS_P1;PMS_P2;Temp;Humidity;BMP_temperature;BMP_pressure;BME280_temperature;BME280_humidity;BME280_pressure;Samples;Min_cycle;Max_cycle;Signal;HPM_P1;HPM_P2
2023/09/18 00:02:25;;;;;;;24.85;22.00;;;20.10;99.90;;;;;;5014516;28;20041;-76
2023/09/18 00:04:52;;;;;;;25.05;21.33;;;20.50;99.90;;;;;;5014070;28;20082;-76
2023/09/18 00:07:17;;;;;;;23.98;20.70;;;19.90;99.90;;;;;;5013832;28;20045;-75
2023/09/18 00:09:43;;;;;;;25.27;21.90;;;20.30;99.90;;;;;;4997806;28;20037;-75
2023/09/18 00:12:09;;;;;;;33.22;25.88;;;19.90;99.90;;;;;;4997812;28;20065;-76
2023/09/18 00:14:38;;;;;;;33.88;24.42;;;20.10;99.90;;;;;;4997901;28;20416;-76
2023/09/18 00:17:03;;;;;;;26.52;21.40;;;20.60;99.90;;;;;;4997623;28;20128;-75
2023/09/18 00:19:31;;;;;;;30.60;24.52;;;20.20;99.90;;;;;;5013700;28;20148;-76
2023/09/18 00:22:00;;;;;;;30.42;23.63;;;19.70;99.90;;;;;;4997777;28;20493;-76
2023/09/18 00:24:26;;;;;;;32.90;23.73;;;20.30;99.90;;;;;;4997621;28;20512;-76
2023/09/18 00:26:52;;;;;;;33.22;24.98;;;20.80;99.90;;;;;;5014143;28;20380;-76
2023/09/18 00:29:18;;;;;;;27.98;22.77;;;19.80;99.90;;;;;;5013817;28;20398;-76
2023/09/18 00:31:44;;;;;;;27.17;22.38;;;20.50;99.90;;;;;;5013826;28;20125;-75
2023/09/18 00:34:10;;;;;;;32.88;23.75;;;19.90;99.90;;;;;;5013892;28;20060;-76
2023/09/18 00:36:35;;;;;;;29.02;23.83;;;20.40;99.90;;;;;;5013806;28;20049;-76
2023/09/18 00:39:01;;;;;;;26.55;21.00;;;20.10;99.90;;;;;;5013662;28;20045;-76
2023/09/18 00:41:27;;;;;;;28.52;24.55;;;19.90;99.90;;;;;;5013904;28;20124;-76
2023/09/18 00:43:53;;;;;;;27.08;22.08;;;19.90;99.90;;;;;;5013885;28;20123;-75
2023/09/18 00:46:19;;;;;;;23.02;19.08;;;19.80;99.90;;;;;;5014028;28;20041;-76
2023/09/18 00:48:46;;;;;;;30.65;26.20;;;;;;;;;;5013326;28;20052;-76
2023/09/18 00:51:13;;;;;;;26.48;23.33;;;20.20;99.90;;;;;;5013758;28;20129;-76
2023/09/18 00:53:42;;;;;;;25.85;21.65;;;20.30;99.90;;;;;;5013656;28;20037;-76
2023/09/18 00:56:09;;;;;;;30.73;23.95;;;20.50;99.90;;;;;;5013545;28;20041;-76
2023/09/18 00:58:34;;;;;;;27.67;21.65;;;20.40;99.90;;;;;;5013625;28;20041;-76
2023/09/18 01:01:00;;;;;;;23.83;20.33;;;20.50;99.90;;;;;;5013451;28;20045;-76
2023/09/18 01:03:26;;;;;;;27.80;22.30;;;20.00;99.90;;;;;;4999791;28;20099;-75
2023/09/18 01:05:51;;;;;;;25.75;21.90;;;19.90;99.90;;;;;;5017396;28;20045;-75
2023/09/18 01:08:17;;;;;;;28.38;22.20;;;19.70;99.90;;;;;;5017142;28;20064;-76
2023/09/18 01:11:24;;;;;;;26.10;21.70;;;20.10;99.90;;;;;;5017243;28;20389;-76
2023/09/18 01:13:59;;;;;;;24.75;21.00;;;20.20;99.90;;;;;;5017247;28;20037;-76
2023/09/18 01:16:54;;;;;;;25.67;21.98;;;20.00;99.90;;;;;;5017089;28;20099;-75
2023/09/18 01:19:38;;;;;;;24.70;21.00;;;20.20;99.90;;;;;;5017052;28;20041;-75
2023/09/18 01:22:08;;;;;;;24.23;21.63;;;20.10;99.90;;;;;;5017389;28;20045;-76
2023/09/18 01:24:35;;;;;;;25.23;21.45;;;20.30;99.90;;;;;;5017467;28;20443;-76
2023/09/18 01:27:04;;;;;;;27.90;20.98;;;20.30;99.90;;;;;;5016986;28;20049;-76
2023/09/18 01:29:30;;;;;;;24.27;20.80;;;20.10;99.90;;;;;;5000267;28;20092;-76
2023/09/18 01:31:55;;;;;;;23.40;20.23;;;20.20;99.90;;;;;;5016913;28;20033;-75
2023/09/18 01:34:36;;;;;;;27.65;22.33;;;19.90;99.90;;;;;;5016909;28;20041;-76
2023/09/18 01:37:07;;;;;;;29.15;23.27;;;20.60;99.90;;;;;;5000644;28;20504;-76
2023/09/18 01:39:34;;;;;;;28.45;22.33;;;20.00;99.90;;;;;;5017337;28;20142;-76
2023/09/18 01:42:05;;;;;;;24.10;20.02;;;19.90;99.90;;;;;;5016759;28;20037;-75
2023/09/18 01:44:31;;;;;;;29.25;23.05;;;20.20;99.90;;;;;;5016974;28;20057;-76
2023/09/18 01:47:03;;;;;;;32.50;23.50;;;20.00;99.90;;;;;;5000081;28;20120;-76
2023/09/18 01:49:34;;;;;;;25.53;20.17;;;20.10;99.90;;;;;;5000061;28;20041;-76
2023/09/18 01:52:00;;;;;;;28.48;22.13;;;20.10;99.90;;;;;;5016553;28;20137;-76
2023/09/18 01:54:25;;;;;;;28.42;19.85;;;20.70;99.90;;;;;;5000254;28;20133;-76
2023/09/18 01:56:53;;;;;;;22.25;19.58;;;19.80;99.90;;;;;;5016698;28;20388;-76
2023/09/18 01:59:19;;;;;;;22.35;19.00;;;20.30;99.90;;;;;;5016153;28;20041;-76
2023/09/18 02:01:44;;;;;;;31.90;23.33;;;20.20;99.90;;;;;;5016363;28;20041;-76
2023/09/18 02:04:10;;;;;;;24.35;20.73;;;20.40;99.90;;;;;;5016344;28;20477;-75
2023/09/18 02:06:36;;;;;;;26.15;19.95;;;20.40;99.90;;;;;;5016498;28;20080;-76
2023/09/18 02:09:03;;;;;;;26.30;20.85;;;20.50;99.90;;;;;;4999668;28;20044;-76
2023/09/18 02:11:29;;;;;;;25.55;20.60;;;20.40;99.90;;;;;;4999782;28;20034;-76
2023/09/18 02:13:56;;;;;;;30.65;22.15;;;20.10;99.90;;;;;;4998822;28;20045;-76
2023/09/18 02:16:24;;;;;;;28.65;21.00;;;20.40;99.90;;;;;;5015975;28;20111;-75
2023/09/18 02:18:50;;;;;;;22.20;18.98;;;20.30;99.90;;;;;;5015926;28;20046;-76
2023/09/18 02:21:23;;;;;;;26.05;20.88;;;20.10;99.90;;;;;;4999587;28;20046;-76
2023/09/18 02:23:49;;;;;;;;;;;20.50;99.90;;;;;;5000111;28;20124;-76
2023/09/18 02:26:15;;;;;;;23.25;19.25;;;20.40;99.90;;;;;;5015750;28;19917;-75
2023/09/18 02:28:41;;;;;;;26.73;20.40;;;20.50;99.90;;;;;;4999308;28;20087;-76
2023/09/18 02:31:08;;;;;;;27.52;20.45;;;20.50;99.90;;;;;;4999455;28;20029;-76
2023/09/18 02:33:33;;;;;;;24.10;20.20;;;20.40;99.90;;;;;;5015771;28;20046;-76
2023/09/18 02:35:59;;;;;;;28.83;21.70;;;20.00;99.90;;;;;;5015748;28;20030;-76
2023/09/18 02:38:26;;;;;;;26.42;20.50;;;20.30;99.90;;;;;;4999322;28;20408;-76
2023/09/18 02:40:53;;;;;;;22.10;18.73;;;20.00;99.90;;;;;;5015462;28;20045;-76
2023/09/18 02:43:19;;;;;;;27.73;20.45;;;20.20;99.90;;;;;;4999201;28;20049;-75
2023/09/18 02:45:45;;;;;;;25.10;21.02;;;20.00;99.90;;;;;;4999159;28;20039;-76
2023/09/18 02:48:11;;;;;;;27.33;20.48;;;20.30;99.90;;;;;;5015221;28;20548;-76
2023/09/18 02:50:37;;;;;;;24.60;19.45;;;20.30;99.90;;;;;;4999237;28;20128;-76
2023/09/18 02:53:03;;;;;;;26.95;20.65;;;20.50;99.90;;;;;;5015398;28;20128;-75
2023/09/18 02:55:29;;;;;;;25.33;20.75;;;20.10;99.90;;;;;;5015481;28;20120;-76
2023/09/18 02:57:54;;;;;;;27.05;20.60;;;21.10;99.90;;;;;;5015214;28;20057;-76
2023/09/18 03:00:21;;;;;;;26.73;20.90;;;20.10;99.90;;;;;;5015300;28;20128;-76
2023/09/18 03:02:46;;;;;;;26.55;21.52;;;20.60;99.90;;;;;;4998937;28;20044;-76
2023/09/18 03:05:12;;;;;;;26.30;20.45;;;20.20;99.90;;;;;;5015407;28;20500;-76
2023/09/18 03:07:37;;;;;;;26.75;20.75;;;20.70;99.90;;;;;;5014804;28;20091;-76
2023/09/18 03:10:04;;;;;;;24.80;20.35;;;20.30;99.90;;;;;;5014960;28;20060;-75
2023/09/18 03:12:30;;;;;;;22.58;18.65;;;20.30;99.90;;;;;;5014973;28;20095;-76
2023/09/18 03:14:56;;;;;;;28.52;21.05;;;20.50;99.90;;;;;;4998556;28;20492;-76
2023/09/18 03:17:21;;;;;;;23.67;19.50;;;20.60;99.90;;;;;;5014689;28;20033;-76
2023/09/18 03:19:50;;;;;;;31.25;21.73;;;20.60;99.90;;;;;;4998525;28;20072;-76
2023/09/18 03:22:16;;;;;;;28.85;24.05;;;20.60;99.90;;;;;;4998586;28;20037;-76
2023/09/18 03:24:41;;;;;;;26.08;20.90;;;20.40;99.90;;;;;;4998584;28;20397;-75
2023/09/18 03:27:07;;;;;;;27.48;22.85;;;20.60;99.90;;;;;;5014828;28;20037;-76
2023/09/18 03:29:33;;;;;;;27.77;21.88;;;20.30;99.90;;;;;;4998103;28;20049;-76
2023/09/18 03:31:59;;;;;;;26.25;21.75;;;21.40;99.90;;;;;;5014684;28;20037;-76
2023/09/18 03:34:26;;;;;;;26.73;21.33;;;20.70;99.90;;;;;;5014674;28;20052;-75
2023/09/18 03:36:53;;;;;;;27.10;20.73;;;20.70;99.90;;;;;;4998316;28;20045;-75
2023/09/18 03:39:19;;;;;;;26.02;22.02;;;20.50;99.90;;;;;;5014065;28;20566;-76
2023/09/18 03:41:44;;;;;;;34.28;26.17;;;20.60;99.90;;;;;;4998517;28;20045;-76
2023/09/18 03:44:10;;;;;;;27.70;22.45;;;21.10;99.90;;;;;;5014590;28;20493;-76
2023/09/18 03:46:36;;;;;;;27.30;22.73;;;20.70;99.90;;;;;;5014375;28;20041;-76
2023/09/18 03:49:02;;;;;;;30.25;24.70;;;20.20;99.90;;;;;;4998042;28;20049;-76
2023/09/18 03:51:29;;;;;;;28.17;22.17;;;21.00;99.90;;;;;;5014368;28;20037;-76
2023/09/18 03:53:55;;;;;;;32.53;24.08;;;20.70;99.90;;;;;;5014527;28;20398;-76
2023/09/18 03:56:21;;;;;;;29.02;23.63;;;21.90;99.90;;;;;;4998263;28;20037;-77
2023/09/18 03:58:49;;;;;;;24.90;21.48;;;20.60;99.90;;;;;;5014076;28;20520;-75
2023/09/18 04:01:15;;;;;;;33.17;25.85;;;20.70;99.90;;;;;;4997906;28;20103;-76
2023/09/18 04:03:41;;;;;;;38.33;26.38;;;20.30;99.90;;;;;;5014228;28;20077;-76
2023/09/18 04:06:07;;;;;;;25.45;21.13;;;21.00;99.90;;;;;;5014413;28;20531;-76
2023/09/18 04:08:32;;;;;;;31.75;25.58;;;21.10;99.90;;;;;;4997398;28;20041;-76
2023/09/18 04:10:58;;;;;;;30.25;24.60;;;20.50;99.90;;;;;;4997881;28;20034;-76
2023/09/18 04:13:24;;;;;;;33.40;22.67;;;20.70;99.90;;;;;;5014062;28;20033;-75
2023/09/18 04:15:51;;;;;;;33.47;22.58;;;21.00;99.90;;;;;;5014241;28;20485;-76
2023/09/18 04:18:17;;;;;;;28.02;21.15;;;20.50;99.90;;;;;;5013789;28;20099;-76
2023/09/18 04:20:42;;;;;;;30.02;22.58;;;21.00;99.90;;;;;;4997537;28;20424;-76
2023/09/18 04:23:27;;;;;;;30.63;23.23;;;20.50;99.90;;;;;;5013996;28;20041;-76
2023/09/18 04:25:54;;;;;;;30.33;21.88;;;21.20;99.90;;;;;;5013850;28;20176;-75
2023/09/18 04:28:22;;;;;;;30.63;23.77;;;21.50;99.90;;;;;;5013588;28;20037;-76
2023/09/18 04:30:48;;;;;;;32.50;21.65;;;20.40;99.90;;;;;;5013810;28;20505;-76
2023/09/18 04:33:14;;;;;;;28.75;22.85;;;21.10;99.90;;;;;;5013885;28;20048;-76
2023/09/18 04:35:40;;;;;;;30.80;22.92;;;21.40;99.90;;;;;;5013647;28;20046;-76
2023/09/18 04:38:10;;;;;;;28.42;22.27;;;21.00;99.90;;;;;;5015829;28;20064;-76
2023/09/18 04:40:36;;;;;;;27.05;20.85;;;21.20;99.90;;;;;;5017951;28;20127;-76
2023/09/18 04:43:04;;;;;;;25.40;19.67;;;21.60;99.90;;;;;;5018159;28;20527;-76
2023/09/18 04:45:31;;;;;;;29.27;21.48;;;21.30;99.90;;;;;;5001423;28;20489;-76
2023/09/18 04:47:56;;;;;;;24.73;20.40;;;21.10;99.90;;;;;;5001112;28;20045;-76
2023/09/18 04:50:22;;;;;;;23.52;18.55;;;21.00;99.90;;;;;;5017594;28;20455;-76
2023/09/18 04:52:50;;;;;;;29.98;21.02;;;21.40;99.90;;;;;;5001308;28;20075;-75
2023/09/18 04:55:16;;;;;;;25.65;19.63;;;21.30;99.90;;;;;;5001457;28;20033;-75
2023/09/18 04:57:42;;;;;;;29.70;21.25;;;20.80;99.90;;;;;;5017304;28;20091;-75
2023/09/18 05:00:08;;;;;;;29.52;20.95;;;22.40;99.90;;;;;;5017457;28;20045;-76
2023/09/18 05:02:35;;;;;;;23.67;18.98;;;21.10;99.90;;;;;;5017750;28;20051;-75
2023/09/18 05:05:03;;;;;;;28.67;21.33;;;21.20;99.90;;;;;;5017386;28;20056;-76
2023/09/18 05:07:28;;;;;;;25.08;19.48;;;21.40;99.90;;;;;;5016978;28;20532;-76
2023/09/18 05:09:54;;;;;;;24.98;19.27;;;21.80;99.90;;;;;;5000927;28;20037;-76
2023/09/18 05:12:19;;;;;;;24.45;19.92;;;21.00;99.90;;;;;;5001011;28;20034;-76
2023/09/18 05:14:45;;;;;;;26.75;19.90;;;21.60;99.90;;;;;;5017470;28;20496;-76
2023/09/18 05:17:15;;;;;;;22.73;18.45;;;20.80;99.90;;;;;;5017396;28;20060;-75
2023/09/18 05:19:41;;;;;;;22.05;18.95;;;20.90;99.90;;;;;;5017389;28;20041;-75
2023/09/18 05:22:10;;;;;;;23.23;18.63;;;21.40;99.90;;;;;;5017011;28;20114;-76
2023/09/18 05:24:36;;;;;;;25.23;18.63;;;20.80;99.90;;;;;;5017036;28;20049;-76
2023/09/18 05:27:02;;;;;;;25.77;17.63;;;21.00;99.90;;;;;;5016890;28;20052;-76
2023/09/18 05:29:28;;;;;;;23.50;18.40;;;20.80;99.90;;;;;;5016622;28;20046;-76
2023/09/18 05:31:54;;;;;;;22.92;17.83;;;20.90;99.90;;;;;;5016683;28;20042;-76
2023/09/18 05:34:19;;;;;;;25.75;19.38;;;21.60;99.90;;;;;;5016896;28;20044;-75
2023/09/18 05:36:45;;;;;;;24.70;20.05;;;21.40;99.90;;;;;;5000385;28;20041;-76
2023/09/18 05:39:12;;;;;;;26.13;17.83;;;21.00;99.90;;;;;;5016581;28;20131;-76
2023/09/18 05:41:39;;;;;;;25.38;17.30;;;21.60;99.90;;;;;;5016787;28;20045;-75
2023/09/18 05:44:06;;;;;;;25.60;17.40;;;21.60;99.90;;;;;;5000643;28;20045;-76
2023/09/18 05:46:35;;;;;;;22.50;16.77;;;21.40;99.90;;;;;;5016454;28;20049;-76
2023/09/18 05:49:01;;;;;;;21.35;16.63;;;21.20;99.90;;;;;;4999880;28;20034;-76
2023/09/18 05:51:27;;;;;;;23.98;17.63;;;21.40;99.90;;;;;;5016466;28;20033;-76
2023/09/18 05:53:52;;;;;;;22.33;17.20;;;21.20;99.90;;;;;;5016780;28;20053;-75
2023/09/18 05:56:18;;;;;;;23.00;16.83;;;21.30;99.90;;;;;;5016398;28;20496;-76
2023/09/18 05:58:44;;;;;;;22.80;17.92;;;21.90;99.90;;;;;;5000016;28;20044;-76
2023/09/18 06:01:10;;;;;;;24.25;16.80;;;21.30;99.90;;;;;;5016250;28;20049;-76
2023/09/18 06:03:35;;;;;;;24.25;17.65;;;21.80;99.90;;;;;;5016334;28;20069;-76
2023/09/18 06:06:05;;;;;;;20.92;15.40;;;21.00;99.90;;;;;;4999838;28;20073;-76
2023/09/18 06:08:31;;;;;;;21.08;15.90;;;22.00;99.90;;;;;;5016045;28;20497;-76
2023/09/18 06:10:57;;;;;;;22.75;15.68;;;21.70;99.90;;;;;;4999824;28;20040;-76
2023/09/18 06:13:27;;;;;;;27.05;16.15;;;21.30;99.90;;;;;;5016081;28;20551;-76
2023/09/18 06:15:56;;;;;;;17.83;15.35;;;22.00;99.90;;;;;;5016349;28;20554;-76
2023/09/18 06:18:22;;;;;;;24.23;14.52;;;21.80;99.90;;;;;;5015758;28;20041;-76
2023/09/18 06:20:49;;;;;;;20.63;16.15;;;22.00;99.90;;;;;;5016100;28;20042;-76
2023/09/18 06:23:15;;;;;;;24.48;16.50;;;22.00;99.90;;;;;;5016224;28;20504;-76
2023/09/18 06:25:40;;;;;;;18.98;15.70;;;22.00;99.90;;;;;;4999830;28;20107;-76
2023/09/18 06:28:06;;;;;;;26.48;17.13;;;22.00;99.90;;;;;;5015437;28;20520;-76
2023/09/18 06:30:33;;;;;;;22.25;17.50;;;21.60;99.90;;;;;;5016033;28;20068;-76
2023/09/18 06:33:03;;;;;;;31.65;16.83;;;21.70;99.90;;;;;;5015865;28;20447;-76
2023/09/18 06:35:29;;;;;;;19.55;16.15;;;22.20;99.90;;;;;;4999622;28;20037;-76
2023/09/18 06:37:58;;;;;;;24.20;18.35;;;21.80;99.90;;;;;;5015395;28;20547;-76
2023/09/18 06:40:25;;;;;;;27.10;17.27;;;21.40;99.90;;;;;;4999159;28;20041;-76
2023/09/18 06:42:51;;;;;;;27.80;18.77;;;22.20;99.90;;;;;;5015624;28;20137;-76
2023/09/18 06:45:17;;;;;;;23.15;17.55;;;22.10;99.90;;;;;;5015539;28;20416;-75
2023/09/18 06:47:43;;;;;;;25.23;18.33;;;22.30;99.90;;;;;;4999135;28;20049;-76
2023/09/18 06:50:09;;;;;;;25.55;17.58;;;21.50;99.90;;;;;;5015382;28;20523;-76
2023/09/18 06:52:35;;;;;;;41.28;20.02;;;21.90;99.90;;;;;;5015681;28;20513;-77
2023/09/18 06:55:00;;;;;;;30.23;20.58;;;22.50;99.90;;;;;;5015471;28;20348;-76
2023/09/18 06:57:27;;;;;;;25.30;18.45;;;22.20;99.90;;;;;;5014999;28;20033;-77
2023/09/18 06:59:53;;;;;;;31.35;18.73;;;21.70;99.90;;;;;;5014789;28;20072;-77
2023/09/18 07:02:18;;;;;;;26.17;18.45;;;22.40;99.90;;;;;;5015274;28;20481;-76
2023/09/18 07:04:46;;;;;;;26.10;18.17;;;21.80;99.90;;;;;;5015201;28;20128;-76
2023/09/18 07:07:15;;;;;;;25.95;17.75;;;22.40;99.90;;;;;;4999206;28;20045;-77
2023/09/18 07:09:42;;;;;;;27.05;17.55;;;21.90;99.90;;;;;;5014764;28;20124;-77
2023/09/18 07:12:11;;;;;;;28.33;20.17;;;22.20;99.90;;;;;;5015045;28;20041;-77
2023/09/18 07:14:37;;;;;;;28.48;17.27;;;21.70;99.90;;;;;;4998703;28;20124;-76
2023/09/18 07:17:04;;;;;;;25.08;17.15;;;22.20;99.90;;;;;;5015141;28;20045;-76
2023/09/18 07:19:30;;;;;;;22.73;15.07;;;22.00;99.90;;;;;;5014700;28;20037;-77
2023/09/18 07:21:55;;;;;;;21.60;15.68;;;22.20;99.90;;;;;;5015254;28;20067;-76
2023/09/18 07:24:21;;;;;;;21.80;15.00;;;22.40;99.90;;;;;;5014809;28;20041;-77
2023/09/18 07:26:49;;;;;;;23.17;15.85;;;22.20;99.90;;;;;;5015039;28;20048;-76
2023/09/18 07:29:15;;;;;;;17.75;13.13;;;21.90;99.90;;;;;;5014604;28;20586;-75
2023/09/18 07:31:42;;;;;;;17.83;12.00;;;22.10;99.90;;;;;;5015015;28;20392;-77
2023/09/18 07:34:08;;;;;;;21.65;11.63;;;21.80;99.90;;;;;;5014693;28;20037;-77
2023/09/18 07:36:34;;;;;;;14.50;10.52;;;21.80;99.90;;;;;;4998441;28;20037;-77
2023/09/18 07:38:59;;;;;;;16.63;10.93;;;21.70;99.90;;;;;;5014581;28;20108;-76
2023/09/18 07:41:25;;;;;;;18.23;11.48;;;22.30;99.90;;;;;;5014976;28;20127;-76
2023/09/18 07:43:51;;;;;;;17.17;11.80;;;22.30;99.90;;;;;;5014622;28;20063;-77
2023/09/18 07:46:16;;;;;;;21.30;14.55;;;22.20;99.90;;;;;;5014408;28;20077;-77
2023/09/18 07:48:42;;;;;;;21.23;14.35;;;22.40;99.90;;;;;;5014149;28;20045;-77
2023/09/18 07:51:12;;;;;;;18.40;13.07;;;21.60;99.90;;;;;;4997984;28;20045;-77
2023/09/18 07:53:37;;;;;;;21.58;12.68;;;22.10;99.90;;;;;;5014577;28;20528;-77
2023/09/18 07:56:06;;;;;;;19.73;10.85;;;21.80;99.90;;;;;;5014886;28;20073;-77
2023/09/18 07:58:33;;;;;;;15.32;10.90;;;21.70;99.90;;;;;;5014826;28;20049;-76
2023/09/18 08:00:59;;;;;;;15.75;11.75;;;22.20;99.90;;;;;;5015144;28;20408;-77
2023/09/18 08:03:28;;;;;;;16.77;11.40;;;21.80;99.90;;;;;;5014832;28;20041;-77
2023/09/18 08:05:54;;;;;;;17.63;11.55;;;22.50;99.90;;;;;;4998656;28;20096;-76
2023/09/18 08:08:21;;;;;;;21.95;14.50;;;22.50;99.90;;;;;;5013953;28;20073;-77
2023/09/18 08:10:50;;;;;;;19.48;13.27;;;22.20;99.90;;;;;;5014155;28;20069;-75
2023/09/18 08:13:16;;;;;;;17.25;12.60;;;21.90;99.90;;;;;;5013278;28;20037;-77
2023/09/18 08:15:43;;;;;;;19.55;12.80;;;21.80;99.90;;;;;;5014027;28;20029;-76
2023/09/18 08:18:15;;;;;;;23.55;15.07;;;22.00;99.90;;;;;;5031461;28;20120;-76
2023/09/18 08:20:44;;;;;;;17.48;12.45;;;22.50;99.90;;;;;;5013849;28;20041;-77
2023/09/18 08:23:10;;;;;;;20.60;13.07;;;22.60;99.90;;;;;;5014291;28;20045;-76
2023/09/18 08:25:36;;;;;;;21.55;13.32;;;22.10;99.90;;;;;;5013898;28;20041;-76
2023/09/18 08:28:04;;;;;;;20.70;12.57;;;22.40;99.90;;;;;;5013879;28;20044;-76
2023/09/18 08:30:30;;;;;;;14.98;11.73;;;22.20;99.90;;;;;;5013803;28;20037;-76
2023/09/18 08:32:55;;;;;;;17.77;11.80;;;22.00;99.90;;;;;;5014052;28;20044;-76
2023/09/18 08:35:22;;;;;;;13.85;11.00;;;22.60;99.90;;;;;;4997426;28;20056;-76
2023/09/18 08:37:48;;;;;;;20.67;12.60;;;22.30;99.90;;;;;;5013571;28;20072;-76
2023/09/18 08:40:14;;;;;;;17.17;11.75;;;22.10;99.90;;;;;;5013542;28;20126;-77
2023/09/18 08:42:51;;;;;;;17.73;12.50;;;22.90;99.90;;;;;;4997422;28;20033;-76
2023/09/18 08:45:54;;;;;;;18.80;11.60;;;23.00;99.90;;;;;;5013773;28;20151;-76
2023/09/18 08:48:21;;;;;;;15.00;11.18;;;22.30;99.90;;;;;;5002923;28;20056;-76
2023/09/18 08:50:51;;;;;;;22.15;14.43;;;23.10;99.90;;;;;;5013593;28;20041;-76
2023/09/18 08:53:17;;;;;;;16.17;11.85;;;22.30;99.90;;;;;;5013972;28;20400;-76
2023/09/18 08:55:43;;;;;;;21.17;13.25;;;22.60;99.90;;;;;;5013791;28;20033;-76
2023/09/18 08:58:08;;;;;;;19.05;13.18;;;23.20;99.90;;;;;;4996975;28;20130;-76
2023/09/18 09:00:36;;;;;;;21.02;12.50;;;22.80;99.90;;;;;;5013510;28;20037;-77
2023/09/18 09:03:04;;;;;;;20.30;12.77;;;23.30;99.90;;;;;;5013547;28;20171;-76
2023/09/18 09:05:30;;;;;;;18.60;12.90;;;23.30;99.90;;;;;;5013629;28;20047;-76
2023/09/18 09:07:56;;;;;;;19.10;11.98;;;23.50;99.90;;;;;;5013196;28;20120;-77
2023/09/18 09:10:22;;;;;;;17.85;12.48;;;22.50;99.90;;;;;;5013524;28;20187;-76
2023/09/18 09:12:51;;;;;;;23.65;13.93;;;22.80;99.90;;;;;;5013408;28;20103;-76
2023/09/18 09:15:16;;;;;;;17.10;12.23;;;23.30;99.90;;;;;;5013722;28;20124;-77
2023/09/18 09:17:44;;;;;;;17.17;11.70;;;23.20;99.90;;;;;;5013249;28;20658;-76
2023/09/18 09:20:11;;;;;;;14.85;11.35;;;23.40;99.90;;;;;;4997022;28;20038;-75
2023/09/18 09:22:40;;;;;;;15.55;11.05;;;22.60;99.90;;;;;;5013384;28;20427;-76
2023/09/18 09:25:23;;;;;;;15.50;11.13;;;22.90;99.90;;;;;;5016781;28;20045;-75
2023/09/18 09:27:48;;;;;;;17.40;11.23;;;22.70;99.90;;;;;;5016785;28;20081;-76
2023/09/18 09:30:26;;;;;;;18.27;11.55;;;23.30;99.90;;;;;;5016928;28;20077;-76
2023/09/18 09:32:53;;;;;;;14.30;11.07;;;23.60;99.90;;;;;;5016900;28;20068;-75
2023/09/18 09:35:28;;;;;;;12.70;10.32;;;23.60;99.90;;;;;;5016901;28;20041;-76
2023/09/18 09:37:57;;;;;;;15.15;10.55;;;22.80;99.90;;;;;;5016437;28;20516;-76
2023/09/18 09:40:24;;;;;;;15.48;11.48;;;23.10;99.90;;;;;;5016608;28;20052;-76
2023/09/18 09:43:00;;;;;;;18.45;12.02;;;23.00;99.90;;;;;;5017022;28;20708;-76
2023/09/18 09:45:35;;;;;;;15.55;12.35;;;23.40;99.90;;;;;;5016731;28;20045;-75
2023/09/18 09:48:04;;;;;;;18.77;10.65;;;22.80;99.90;;;;;;5016268;28;20038;-76
2023/09/18 09:50:29;;;;;;;17.80;14.13;;;23.70;99.90;;;;;;5016535;28;20501;-76
2023/09/18 09:52:56;;;;;;;17.90;13.07;;;23.60;99.90;;;;;;5000260;28;20035;-76
2023/09/18 09:55:29;;;;;;;18.25;12.55;;;23.70;99.90;;;;;;5016592;28;20489;-76
2023/09/18 09:57:59;;;;;;;;;;;23.60;99.90;;;;;;5000469;28;20077;-76
2023/09/18 10:00:36;;;;;;;19.17;12.98;;;23.20;99.90;;;;;;5016689;28;20327;-76
2023/09/18 10:03:04;;;;;;;18.60;14.25;;;23.70;99.90;;;;;;5000166;28;20084;-75
2023/09/18 10:05:35;;;;;;;18.20;15.63;;;23.30;99.90;;;;;;5016371;28;20037;-76
2023/09/18 10:08:08;;;;;;;17.77;14.73;;;24.00;99.90;;;;;;5015937;28;20046;-76
2023/09/18 10:10:47;;;;;;;20.77;15.80;;;23.80;99.90;;;;;;5016461;28;20393;-76
2023/09/18 10:13:22;;;;;;;17.08;15.27;;;24.10;99.90;;;;;;4999930;28;20041;-76
2023/09/18 10:15:50;;;;;;;15.85;14.20;;;24.30;99.90;;;;;;5016310;28;20425;-76
2023/09/18 10:18:41;;;;;;;18.13;14.95;;;24.60;99.90;;;;;;5015897;28;20573;-76
2023/09/18 10:21:14;;;;;;;16.23;14.35;;;23.90;99.90;;;;;;5015969;28;20050;-76
2023/09/18 10:23:59;;;;;;;14.55;12.30;;;23.80;99.90;;;;;;5016215;28;20072;-76
2023/09/18 10:26:30;;;;;;;15.85;12.98;;;24.60;99.90;;;;;;5015897;28;20045;-76
2023/09/18 10:28:59;;;;;;;14.75;12.95;;;24.40;99.90;;;;;;5015775;28;20506;-76
2023/09/18 10:31:28;;;;;;;13.70;12.13;;;24.60;99.90;;;;;;5015735;28;20460;-76
2023/09/18 10:33:57;;;;;;;15.63;12.43;;;23.90;99.90;;;;;;5015679;28;20037;-76
2023/09/18 10:36:24;;;;;;;14.02;10.65;;;24.60;99.90;;;;;;5015033;28;20586;-76
2023/09/18 10:38:52;;;;;;;12.63;9.55;;;24.80;99.90;;;;;;4999106;28;20041;-76
2023/09/18 10:41:21;;;;;;;11.27;10.10;;;25.30;99.90;;;;;;4999218;28;20567;-76
2023/09/18 10:43:49;;;;;;;10.27;9.27;;;25.30;99.90;;;;;;4999305;28;20049;-76
2023/09/18 10:46:15;;;;;;;9.27;8.40;;;25.40;99.90;;;;;;5015425;28;20493;-76
2023/09/18 10:48:43;;;;;;;9.52;8.52;;;25.00;99.90;;;;;;5015300;28;20067;-75
2023/09/18 10:51:09;;;;;;;9.63;8.35;;;25.30;99.90;;;;;;5015671;28;20045;-76
2023/09/18 10:53:35;;;;;;;9.35;8.45;;;25.40;99.90;;;;;;5015512;28;20045;-75
2023/09/18 10:56:04;;;;;;;7.80;7.07;;;25.20;99.90;;;;;;5015365;28;20042;-76
2023/09/18 10:58:30;;;;;;;7.50;6.43;;;25.30;99.90;;;;;;4998982;28;20497;-74
2023/09/18 11:00:57;;;;;;;7.47;6.70;;;25.10;99.90;;;;;;5015284;28;20106;-76
2023/09/18 11:03:23;;;;;;;8.25;6.25;;;25.00;99.90;;;;;;4998822;28;20041;-75
2023/09/18 11:06:02;;;;;;;8.02;6.47;;;25.00;99.90;;;;;;5015200;28;20072;-76
2023/09/18 11:08:43;;;;;;;8.48;6.72;;;25.20;99.90;;;;;;5015041;28;20500;-76
2023/09/18 11:11:12;;;;;;;7.15;6.45;;;25.20;99.90;;;;;;5015347;28;20064;-75
2023/09/18 11:13:55;;;;;;;7.68;5.10;;;25.50;99.90;;;;;;5015047;28;20116;-76
2023/09/18 11:16:27;;;;;;;7.32;5.80;;;25.70;99.90;;;;;;5015280;28;20124;-75
2023/09/18 11:19:05;;;;;;;7.07;4.75;;;25.50;99.90;;;;;;5014930;28;20053;-76
2023/09/18 11:21:32;;;;;;;5.47;4.50;;;25.80;99.90;;;;;;5015300;28;20104;-76
2023/09/18 11:24:06;;;;;;;6.05;4.85;;;25.90;99.90;;;;;;5014810;28;20033;-77
2023/09/18 11:26:36;;;;;;;5.15;4.70;;;25.50;99.90;;;;;;5015086;28;20042;-76
2023/09/18 11:29:05;;;;;;;4.72;4.20;;;25.40;99.90;;;;;;4998297;28;20518;-76
2023/09/18 11:31:47;;;;;;;6.68;4.28;;;25.60;99.90;;;;;;5014842;28;20037;-76
2023/09/18 11:34:23;;;;;;;10.52;5.25;;;25.80;99.90;;;;;;4998520;28;20052;-76
2023/09/18 11:36:49;;;;;;;10.48;4.72;;;25.90;99.90;;;;;;5014584;28;20045;-76
2023/09/18 11:39:40;;;;;;;5.45;4.25;;;25.70;99.90;;;;;;5014596;28;20404;-77
2023/09/18 11:42:32;;;;;;;6.95;4.28;;;25.70;99.90;;;;;;5014652;28;20049;-75
2023/09/18 11:44:59;;;;;;;6.05;4.15;;;26.30;99.90;;;;;;5027239;28;20572;-76
2023/09/18 11:47:27;;;;;;;5.70;4.00;;;25.90;99.90;;;;;;5014068;28;20095;-76
2023/09/18 11:49:57;;;;;;;5.32;3.83;;;26.50;99.90;;;;;;5014289;28;20054;-76
2023/09/18 11:52:25;;;;;;;4.97;3.90;;;26.60;99.90;;;;;;5014467;28;20086;-76
2023/09/18 11:54:53;;;;;;;5.43;4.10;;;26.50;99.90;;;;;;4997816;28;20120;-76
2023/09/18 11:57:21;;;;;;;5.35;4.07;;;26.40;99.90;;;;;;4997925;28;20317;-76
2023/09/18 11:59:48;;;;;;;7.88;4.63;;;26.70;99.90;;;;;;5014152;28;20136;-77
2023/09/18 12:02:27;;;;;;;5.95;4.20;;;26.20;99.90;;;;;;5014183;28;20041;-76
2023/09/18 12:04:56;;;;;;;9.27;4.47;;;26.10;99.90;;;;;;5014422;28;20513;-77
2023/09/18 12:07:22;;;;;;;6.30;4.55;;;26.10;99.90;;;;;;5014250;28;20410;-76
2023/09/18 12:09:48;;;;;;;6.97;4.15;;;26.00;99.90;;;;;;4997549;28;20041;-76
2023/09/18 12:12:15;;;;;;;4.40;3.83;;;25.90;99.90;;;;;;5014339;28;20485;-77
2023/09/18 12:14:44;;;;;;;6.38;3.35;;;26.30;99.90;;;;;;5014023;28;20044;-76
2023/09/18 12:17:15;;;;;;;5.22;3.45;;;26.20;99.90;;;;;;5013928;28;20041;-76
2023/09/18 12:19:51;;;;;;;6.63;3.38;;;26.40;99.90;;;;;;5014064;28;20394;-77
2023/09/18 12:22:26;;;;;;;5.20;3.50;;;26.40;99.90;;;;;;4997621;28;20045;-76
2023/09/18 12:24:52;;;;;;;6.03;3.50;;;26.50;99.90;;;;;;4997818;28;20464;-76
2023/09/18 12:27:18;;;;;;;4.25;3.05;;;26.40;99.90;;;;;;5013831;28;20124;-76
2023/09/18 12:29:44;;;;;;;5.80;3.45;;;26.60;99.90;;;;;;5013619;28;20494;-77
2023/09/18 12:32:13;;;;;;;10.30;4.75;;;26.50;99.90;;;;;;5013975;28;20047;-77
2023/09/18 12:34:41;;;;;;;5.45;3.72;;;26.30;99.90;;;;;;5013605;28;20045;-76
2023/09/18 12:37:11;;;;;;;8.60;3.95;;;26.00;99.90;;;;;;5013951;28;20037;-76